Impacts TAF Board INFO
FOR SITUATIONAL AWARENESS. NOT TO BE USED FOR FLIGHT PLANNING PURPOSES.
IDs:

KCLT - Charlotte/Douglas In, NC, US

Issued at 0158 UTC 15 Dec 2017
Updated at 0246 UTC 15 Dec 2017
Potential Impact None Slight Moderate High
Time0152Z 15/03Z 15/04Z 15/05Z 15/06Z 15/07Z 15/08Z 15/09Z 15/10Z 15/11Z 15/12Z 15/13Z 15/14Z 15/15Z>>
Type OBS PRVL PRVL PRVL PRVL PRVL PRVL PRVL PRVL PRVL PRVL PRVL PRVL PRVL
VIS 10 >6 >6 >6 >6 >6 >6 >6 >6 >6 >6 >6 >6 >6
CIG -- 200 200 200 200 200 200 200 200 200 200 200 200 250
Cover FEW BKN BKN BKN BKN BKN BKN BKN BKN BKN BKN BKN BKN BKN
FltCat VFR VFR VFR VFR VFR VFR VFR VFR VFR VFR VFR VFR VFR VFR
WX -- -- -- -- -- -- -- -- -- -- -- -- -- --
WDir 120 50 50 50 50 50 50 50 50 50 50 50 50 330
WSpd 6 4 4 4 4 4 4 4 4 4 4 4 4 5
WGst -- -- -- -- -- -- -- -- -- -- -- -- -- --

Raw TAF
KCLT 150158Z 1502/1606 11004KT P6SM FEW250
  FM150300 05004KT P6SM SCT150 BKN200
  FM151500 33005KT P6SM FEW120 BKN250
  FM151800 28006KT P6SM SCT200
  FM160300 32004KT P6SM FEW250


Raw METAR
KCLT 150152Z 12006KT 10SM FEW250 10/M02 A2994 RMK AO2 SLP139 T01001017
KCLT 150052Z 00000KT 10SM FEW250 09/M02 A2993 RMK AO2 SLP137 T00891017
KCLT 142352Z 15005KT 10SM FEW200 FEW250 11/M02 A2992 RMK AO2 SLP134 T01111022 10150 20083 53018

METAR Board
Radar Display
Forecast Discussion

FOR SITUATIONAL AWARENESS. NOT TO BE USED FOR FLIGHT PLANNING PURPOSES.